createdAt,value
2022-10-18T00:02:04.807Z,54.69
2022-10-18T00:04:39.284Z,54.78
2022-10-18T00:07:11.723Z,54.91
2022-10-18T00:09:45.288Z,54.76
2022-10-18T00:12:17.314Z,54.73
2022-10-18T00:14:52.068Z,54.57
2022-10-18T00:17:24.651Z,54.69
2022-10-18T00:19:58.850Z,54.62
2022-10-18T00:22:31.025Z,54.67
2022-10-18T00:25:06.323Z,54.73
2022-10-18T00:27:39.917Z,54.76
2022-10-18T00:30:14.530Z,54.70
2022-10-18T00:32:48.179Z,54.71
2022-10-18T00:35:21.346Z,54.83
2022-10-18T00:37:53.276Z,54.92
2022-10-18T00:40:27.334Z,54.89
2022-10-18T00:43:00.794Z,54.99
2022-10-18T00:45:33.323Z,55.05
2022-10-18T00:48:08.677Z,54.92
2022-10-18T00:50:41.108Z,54.89
2022-10-18T00:53:16.586Z,54.91
2022-10-18T00:55:49.154Z,54.98
2022-10-18T00:58:25.096Z,55.05
2022-10-18T01:01:00.116Z,54.98
2022-10-18T01:03:34.819Z,55.11
2022-10-18T01:06:10.838Z,55.14
2022-10-18T01:09:07.790Z,55.38
2022-10-18T01:11:57.282Z,55.43
2022-10-18T01:14:41.174Z,55.41
2022-10-18T01:17:16.565Z,55.46
2022-10-18T01:20:09.444Z,55.42
2022-10-18T01:22:45.398Z,55.47
2022-10-18T01:25:28.545Z,55.51
2022-10-18T01:28:10.014Z,55.54
2022-10-18T01:30:56.144Z,55.67
2022-10-18T01:33:34.599Z,55.66
2022-10-18T01:36:11.276Z,55.70
2022-10-18T01:38:44.825Z,55.56
2022-10-18T01:41:18.483Z,55.69
2022-10-18T01:43:52.860Z,56.09
2022-10-18T01:46:27.645Z,56.62
2022-10-18T01:49:03.826Z,56.62
2022-10-18T01:51:36.031Z,56.49
2022-10-18T01:54:12.885Z,55.99
2022-10-18T01:56:53.509Z,55.95
2022-10-18T01:59:40.250Z,55.82
2022-10-18T02:02:20.659Z,55.83
2022-10-18T02:04:56.427Z,55.93
2022-10-18T02:07:30.827Z,55.93
2022-10-18T02:10:07.486Z,56.00
2022-10-18T02:12:41.770Z,56.04
2022-10-18T02:15:17.411Z,56.13
2022-10-18T02:17:50.212Z,56.16
2022-10-18T02:20:25.744Z,56.17
2022-10-18T02:22:59.559Z,56.23
2022-10-18T02:25:33.158Z,56.07
2022-10-18T02:28:06.536Z,56.22
2022-10-18T02:30:43.763Z,56.48
2022-10-18T02:33:24.641Z,56.32
2022-10-18T02:36:04.115Z,56.39
2022-10-18T02:38:38.920Z,56.45
2022-10-18T02:41:12.015Z,56.41
2022-10-18T02:43:45.457Z,56.52
2022-10-18T02:46:18.724Z,56.57
2022-10-18T02:48:51.808Z,56.44
2022-10-18T02:51:24.439Z,56.45
2022-10-18T02:54:01.143Z,56.54
2022-10-18T02:56:35.231Z,56.49
2022-10-18T02:59:08.322Z,56.40
2022-10-18T03:01:40.965Z,56.33
2022-10-18T03:04:14.173Z,56.29
2022-10-18T03:06:46.334Z,56.27
2022-10-18T03:09:18.498Z,56.33
2022-10-18T03:11:51.078Z,56.23
2022-10-18T03:14:23.964Z,56.16
2022-10-18T03:16:56.999Z,56.14
2022-10-18T03:19:33.106Z,55.98
2022-10-18T03:22:06.852Z,55.86
2022-10-18T03:24:41.174Z,55.83
2022-10-18T03:27:14.041Z,55.81
2022-10-18T03:29:47.690Z,55.67
2022-10-18T03:32:21.154Z,55.68
2022-10-18T03:34:53.116Z,55.54
2022-10-18T03:37:28.968Z,55.64
2022-10-18T03:40:01.303Z,55.64
2022-10-18T03:42:35.569Z,55.56
2022-10-18T03:45:11.139Z,55.46
2022-10-18T03:47:42.895Z,55.44
2022-10-18T03:50:16.294Z,55.35
2022-10-18T03:52:51.137Z,55.35
2022-10-18T03:55:24.147Z,55.46
2022-10-18T03:57:57.006Z,55.84
2022-10-18T04:00:30.781Z,55.98
2022-10-18T04:03:05.636Z,55.97
2022-10-18T04:05:39.605Z,56.06
2022-10-18T04:08:14.098Z,56.14
2022-10-18T04:10:50.606Z,55.79
2022-10-18T04:13:33.616Z,55.62
2022-10-18T04:16:33.655Z,55.99
2022-10-18T04:19:39.110Z,55.99
2022-10-18T04:22:21.526Z,55.93
2022-10-18T04:31:19.253Z,54.82
2022-10-18T04:33:53.621Z,54.60
2022-10-18T04:36:53.360Z,54.45
2022-10-18T04:46:35.190Z,54.12
2022-10-18T04:49:33.792Z,54.05
2022-10-18T04:52:30.122Z,53.92
2022-10-18T04:58:26.228Z,53.91
2022-10-18T05:00:59.490Z,53.89
2022-10-18T05:03:37.982Z,53.94
2022-10-18T05:06:14.544Z,53.97
2022-10-18T05:12:12.925Z,53.68
2022-10-18T05:14:50.793Z,53.69
2022-10-18T05:17:24.591Z,53.76
2022-10-18T05:20:02.910Z,53.73
2022-10-18T05:22:44.804Z,53.69
2022-10-18T05:25:24.213Z,53.66
2022-10-18T05:28:10.925Z,53.64
2022-10-18T05:31:26.182Z,53.70
2022-10-18T05:37:56.975Z,53.88
2022-10-18T05:40:29.172Z,53.91
2022-10-18T05:43:05.253Z,53.84
2022-10-18T05:45:37.830Z,53.87
2022-10-18T05:48:18.566Z,53.80
2022-10-18T05:51:20.777Z,53.67
2022-10-18T05:54:17.072Z,53.63
2022-10-18T05:59:57.416Z,53.53
2022-10-18T06:02:35.773Z,53.50
2022-10-18T06:05:43.848Z,53.44
2022-10-18T06:11:45.733Z,53.27
2022-10-18T06:14:19.029Z,53.22
2022-10-18T06:16:54.116Z,53.12
2022-10-18T06:19:56.876Z,53.00
2022-10-18T06:22:31.896Z,52.78
2022-10-18T06:25:32.575Z,52.64
2022-10-18T06:31:34.855Z,52.00
2022-10-18T06:34:13.670Z,51.95
2022-10-18T06:37:13.284Z,51.58
2022-10-18T06:39:53.917Z,51.48
2022-10-18T06:46:29.192Z,50.73
2022-10-18T06:49:05.024Z,50.65
2022-10-18T06:51:46.983Z,50.60
2022-10-18T06:54:27.841Z,50.14
2022-10-18T06:57:27.870Z,49.91
2022-10-18T07:00:07.552Z,49.87
2022-10-18T07:03:57.259Z,49.34
2022-10-18T07:07:03.338Z,48.88
2022-10-18T07:12:43.636Z,48.34
2022-10-18T07:15:28.415Z,48.12
2022-10-18T07:18:54.000Z,47.67
2022-10-18T07:21:35.304Z,47.63
2022-10-18T07:24:39.929Z,47.04
2022-10-18T07:31:05.225Z,46.60
2022-10-18T07:34:12.815Z,46.12
2022-10-18T07:37:11.879Z,46.08
2022-10-18T07:43:12.004Z,46.26
2022-10-18T07:46:15.399Z,46.01
2022-10-18T07:49:01.051Z,45.67
2022-10-18T07:52:27.300Z,45.40
2022-10-18T07:55:02.785Z,44.94
2022-10-18T07:58:00.942Z,44.69
2022-10-18T08:01:06.184Z,43.97
2022-10-18T08:03:48.046Z,43.78
2022-10-18T08:07:08.966Z,43.67
2022-10-18T08:09:43.738Z,43.31
2022-10-18T08:12:24.159Z,43.24
2022-10-18T08:15:20.576Z,43.01
2022-10-18T08:17:59.718Z,42.95
2022-10-18T08:20:38.618Z,42.93
2022-10-18T08:27:06.645Z,42.41
2022-10-18T08:30:05.647Z,42.76
2022-10-18T08:32:41.112Z,42.51
2022-10-18T08:35:16.274Z,42.34
2022-10-18T08:37:49.128Z,42.21
2022-10-18T08:40:21.863Z,42.08
2022-10-18T08:43:21.827Z,41.74
2022-10-18T08:46:25.196Z,41.03
2022-10-18T08:49:32.883Z,40.92
2022-10-18T08:52:37.777Z,41.00
2022-10-18T08:55:43.634Z,40.63
2022-10-18T08:58:28.747Z,40.88
2022-10-18T09:01:31.627Z,40.75
2022-10-18T09:15:29.848Z,39.62
2022-10-18T09:18:38.240Z,39.59
2022-10-18T09:21:26.227Z,39.55
2022-10-18T09:24:12.566Z,39.57
2022-10-18T09:30:18.443Z,38.96
2022-10-18T09:33:03.068Z,38.90
2022-10-18T09:39:24.331Z,38.16
2022-10-18T09:43:10.457Z,38.32
2022-10-18T09:46:16.868Z,38.50
2022-10-18T09:49:03.102Z,37.93
2022-10-18T09:52:11.241Z,37.86
2022-10-18T09:54:57.011Z,37.59
2022-10-18T10:01:07.906Z,37.50
2022-10-18T10:04:06.550Z,37.22
2022-10-18T10:07:34.083Z,37.30
2022-10-18T10:10:35.655Z,36.97
2022-10-18T10:13:24.036Z,37.00
2022-10-18T10:16:21.054Z,36.80
2022-10-18T10:19:42.253Z,36.28
2022-10-18T10:22:16.816Z,36.62
2022-10-18T10:24:59.150Z,36.59
2022-10-18T10:28:08.510Z,36.11
2022-10-18T10:30:44.980Z,35.39
2022-10-18T10:33:47.535Z,35.84
2022-10-18T10:36:24.284Z,35.87
2022-10-18T10:40:00.719Z,35.76
2022-10-18T10:48:06.371Z,35.36
2022-10-18T10:51:08.037Z,34.98
2022-10-18T10:57:13.959Z,34.67
2022-10-18T11:04:33.945Z,34.57
2022-10-18T11:11:42.919Z,34.55
2022-10-18T11:14:41.174Z,34.38
2022-10-18T11:17:50.041Z,33.93
2022-10-18T11:24:25.453Z,33.83
2022-10-18T11:27:06.463Z,33.51
2022-10-18T11:30:25.449Z,33.68
2022-10-18T11:33:04.204Z,33.14
2022-10-18T11:35:43.259Z,32.55
2022-10-18T11:38:26.867Z,32.03
2022-10-18T11:41:18.165Z,31.97
2022-10-18T11:44:04.021Z,31.59
2022-10-18T11:46:48.572Z,31.49
2022-10-18T11:49:42.762Z,31.24
2022-10-18T11:52:19.954Z,31.39
2022-10-18T11:55:03.273Z,31.73
2022-10-18T11:57:45.539Z,31.78
2022-10-18T12:00:48.891Z,31.89
2022-10-18T12:03:38.696Z,31.55
2022-10-18T12:06:16.844Z,31.16
2022-10-18T12:08:51.073Z,30.93
2022-10-18T12:11:27.151Z,31.27
2022-10-18T12:14:04.374Z,31.61
2022-10-18T12:16:50.855Z,31.44
2022-10-18T12:19:27.578Z,31.09
2022-10-18T12:22:04.424Z,30.57
2022-10-18T12:24:40.538Z,30.40
2022-10-18T12:27:16.087Z,30.35
2022-10-18T12:29:54.854Z,30.34
2022-10-18T12:32:31.229Z,30.44
2022-10-18T12:35:07.336Z,30.20
2022-10-18T12:37:57.625Z,30.12
2022-10-18T12:40:37.720Z,29.79
2022-10-18T12:43:23.165Z,29.86
2022-10-18T12:45:56.788Z,30.14
2022-10-18T12:48:42.725Z,29.29
2022-10-18T12:51:19.064Z,29.34
2022-10-18T12:53:57.145Z,28.95
2022-10-18T12:56:42.301Z,28.80
2022-10-18T12:59:43.315Z,28.91
2022-10-18T13:02:30.429Z,29.47
2022-10-18T13:05:12.384Z,29.67
2022-10-18T13:08:10.859Z,29.45
2022-10-18T13:10:45.919Z,29.34
2022-10-18T13:13:50.691Z,29.68
2022-10-18T13:16:40.594Z,29.22
2022-10-18T13:19:23.265Z,29.20
2022-10-18T13:22:14.184Z,29.27
2022-10-18T13:24:55.506Z,29.63
2022-10-18T13:27:36.539Z,29.99
2022-10-18T13:30:34.365Z,30.28
2022-10-18T13:33:26.409Z,30.13
2022-10-18T13:36:00.716Z,30.61
2022-10-18T13:39:03.479Z,30.83
2022-10-18T13:42:13.986Z,31.00
2022-10-18T13:44:46.727Z,31.34
2022-10-18T13:47:36.048Z,31.70
2022-10-18T13:50:33.858Z,31.76
2022-10-18T13:53:35.434Z,31.53
2022-10-18T13:56:38.426Z,31.91
2022-10-18T13:59:26.795Z,32.17
2022-10-18T14:02:36.338Z,32.46
2022-10-18T14:05:47.887Z,32.02
2022-10-18T14:08:23.893Z,31.83
2022-10-18T14:11:05.064Z,32.20
2022-10-18T14:13:48.796Z,32.25
2022-10-18T14:16:35.993Z,32.37
2022-10-18T14:19:20.759Z,32.49
2022-10-18T14:21:58.422Z,32.61
2022-10-18T14:24:32.408Z,32.90
2022-10-18T14:27:24.050Z,33.11
2022-10-18T14:32:55.533Z,33.41
2022-10-18T14:35:33.324Z,33.64
2022-10-18T14:38:06.354Z,33.94
2022-10-18T14:40:40.590Z,34.02
2022-10-18T14:43:16.185Z,34.09
2022-10-18T14:45:49.316Z,34.39
2022-10-18T14:48:24.442Z,34.48
2022-10-18T14:51:00.758Z,34.52
2022-10-18T14:53:42.957Z,34.65
2022-10-18T14:56:24.938Z,34.77
2022-10-18T14:58:58.893Z,34.58
2022-10-18T15:01:36.454Z,34.68
2022-10-18T15:04:11.882Z,34.74
2022-10-18T15:06:47.430Z,34.81
2022-10-18T15:09:24.255Z,34.92
2022-10-18T15:11:57.999Z,35.04
2022-10-18T15:14:32.761Z,35.13
2022-10-18T15:17:09.059Z,35.25
2022-10-18T15:19:54.258Z,35.50
2022-10-18T15:22:32.361Z,35.60
2022-10-18T15:25:15.451Z,35.76
2022-10-18T15:27:49.897Z,36.00
2022-10-18T15:30:27.746Z,35.97
2022-10-18T15:33:02.711Z,36.09
2022-10-18T15:35:37.651Z,36.25
2022-10-18T15:38:18.502Z,36.36
2022-10-18T15:40:50.639Z,36.41
2022-10-18T15:43:39.767Z,36.54
2022-10-18T15:46:33.987Z,36.65
2022-10-18T15:49:55.706Z,36.69
2022-10-18T15:52:39.430Z,36.82
2022-10-18T15:55:48.799Z,36.99
2022-10-18T15:58:26.387Z,37.14
2022-10-18T16:01:04.569Z,37.21
2022-10-18T16:03:39.563Z,37.38
2022-10-18T16:06:16.022Z,37.45
2022-10-18T16:08:52.679Z,37.49
2022-10-18T16:11:26.399Z,37.66
2022-10-18T16:14:00.528Z,37.79
2022-10-18T16:16:35.119Z,37.85
2022-10-18T16:19:07.549Z,38.00
2022-10-18T16:21:41.578Z,38.09
2022-10-18T16:24:17.528Z,38.24
2022-10-18T16:26:54.353Z,38.30
2022-10-18T16:29:32.247Z,38.38
2022-10-18T16:32:05.443Z,38.47
2022-10-18T16:34:38.290Z,38.42
2022-10-18T16:37:10.830Z,38.48
2022-10-18T16:39:44.292Z,38.60
2022-10-18T16:42:18.538Z,38.72
2022-10-18T16:44:51.985Z,38.81
2022-10-18T16:47:25.261Z,38.93
2022-10-18T16:49:59.787Z,38.99
2022-10-18T16:52:34.621Z,39.01
2022-10-18T16:55:16.931Z,39.06
2022-10-18T16:57:52.076Z,39.16
2022-10-18T17:00:26.415Z,39.17
2022-10-18T17:02:59.801Z,39.33
2022-10-18T17:05:34.190Z,39.33
2022-10-18T17:08:08.931Z,39.42
2022-10-18T17:10:41.946Z,39.56
2022-10-18T17:20:36.115Z,39.61
2022-10-18T17:23:09.904Z,39.72
2022-10-18T17:25:57.363Z,39.82
2022-10-18T17:28:38.513Z,39.83
2022-10-18T17:31:15.502Z,39.78
2022-10-18T17:33:49.225Z,39.80
2022-10-18T17:36:22.932Z,39.73
2022-10-18T17:38:56.647Z,39.73
2022-10-18T17:41:29.663Z,39.83
2022-10-18T17:44:05.229Z,39.87
2022-10-18T17:46:39.325Z,39.94
2022-10-18T17:49:14.748Z,39.98
2022-10-18T17:51:48.206Z,40.02
2022-10-18T17:54:22.975Z,40.05
2022-10-18T17:56:56.154Z,40.16
2022-10-18T17:59:29.317Z,40.31
2022-10-18T18:02:06.554Z,40.45
2022-10-18T18:04:38.725Z,40.47
2022-10-18T18:07:12.318Z,40.68
2022-10-18T18:09:49.193Z,40.84
2022-10-18T18:12:21.676Z,41.06
2022-10-18T18:14:55.581Z,41.13
2022-10-18T18:17:34.349Z,41.28
2022-10-18T18:20:16.407Z,41.39
2022-10-18T18:22:50.181Z,41.68
2022-10-18T18:25:25.789Z,42.08
2022-10-18T18:28:03.843Z,42.13
2022-10-18T18:30:42.012Z,42.26
2022-10-18T18:33:17.712Z,42.42
2022-10-18T18:35:59.419Z,42.70
2022-10-18T18:38:35.422Z,42.69
2022-10-18T18:41:11.009Z,42.74
2022-10-18T18:43:45.858Z,42.79
2022-10-18T18:46:19.343Z,43.19
2022-10-18T18:48:53.650Z,43.22
2022-10-18T18:51:28.858Z,43.49
2022-10-18T18:54:03.375Z,43.55
2022-10-18T18:56:36.573Z,43.55
2022-10-18T18:59:10.193Z,43.88
2022-10-18T19:01:46.603Z,44.26
2022-10-18T19:04:20.775Z,44.72
2022-10-18T19:06:55.256Z,45.34
2022-10-18T19:09:28.593Z,46.10
2022-10-18T19:12:04.406Z,46.60
2022-10-18T19:14:39.179Z,47.83
2022-10-18T19:17:12.549Z,48.71
2022-10-18T19:19:45.659Z,49.02
2022-10-18T19:22:18.207Z,49.78
2022-10-18T19:24:50.360Z,50.59
2022-10-18T19:27:27.075Z,50.72
2022-10-18T19:30:01.741Z,50.90
2022-10-18T19:32:35.365Z,52.02
2022-10-18T19:35:10.870Z,52.44
2022-10-18T19:37:43.012Z,52.98
2022-10-18T19:40:17.026Z,52.94
2022-10-18T19:42:51.564Z,52.81
2022-10-18T19:45:27.372Z,52.69
2022-10-18T19:48:00.177Z,52.75
2022-10-18T19:50:34.271Z,52.97
2022-10-18T19:53:09.607Z,52.92
2022-10-18T19:55:42.711Z,53.00
2022-10-18T19:58:18.377Z,53.07
2022-10-18T20:00:56.232Z,53.84
2022-10-18T20:03:30.366Z,54.52
2022-10-18T20:06:05.623Z,54.91
2022-10-18T20:08:39.344Z,55.05
2022-10-18T20:11:15.650Z,55.61
2022-10-18T20:13:48.237Z,55.94
2022-10-18T20:16:27.886Z,55.96
2022-10-18T20:19:03.201Z,55.77
2022-10-18T20:21:36.268Z,56.17
2022-10-18T20:24:12.558Z,55.84
2022-10-18T20:26:46.746Z,56.10
2022-10-18T20:29:23.057Z,57.09
2022-10-18T20:31:57.786Z,57.79
2022-10-18T20:34:32.712Z,58.71
2022-10-18T20:37:05.392Z,59.34
2022-10-18T20:39:40.797Z,59.23
2022-10-18T20:42:13.861Z,59.11
2022-10-18T20:44:48.679Z,59.03
2022-10-18T20:47:22.145Z,58.53
2022-10-18T20:49:54.472Z,58.29
2022-10-18T20:52:26.707Z,58.83
2022-10-18T20:54:59.180Z,58.84
2022-10-18T20:57:36.419Z,59.28
2022-10-18T21:00:11.723Z,59.85
2022-10-18T21:02:43.956Z,59.65
2022-10-18T21:05:20.649Z,59.61
2022-10-18T21:07:58.882Z,60.11
2022-10-18T21:10:35.873Z,60.13
2022-10-18T21:13:08.277Z,60.43
2022-10-18T21:15:43.673Z,60.74
2022-10-18T21:18:16.957Z,60.46
2022-10-18T21:20:49.633Z,60.34
2022-10-18T21:23:22.088Z,60.34
2022-10-18T21:25:53.981Z,60.38
2022-10-18T21:28:28.603Z,60.53
2022-10-18T21:31:12.864Z,60.03
2022-10-18T21:33:47.255Z,59.71
2022-10-18T21:36:21.032Z,59.60
2022-10-18T21:38:54.666Z,59.54
2022-10-18T21:41:29.445Z,59.46
2022-10-18T21:44:05.646Z,59.71
2022-10-18T21:46:43.559Z,59.58
2022-10-18T21:49:16.828Z,59.43
2022-10-18T21:51:48.644Z,59.67
2022-10-18T21:54:22.406Z,59.78
2022-10-18T21:56:55.263Z,59.43
2022-10-18T21:59:29.170Z,59.84
2022-10-18T22:02:04.181Z,59.72
2022-10-18T22:04:37.443Z,60.11
2022-10-18T22:07:10.346Z,60.24
2022-10-18T22:09:43.425Z,60.47
2022-10-18T22:12:18.491Z,60.29
2022-10-18T22:14:51.688Z,60.13
2022-10-18T22:17:30.282Z,60.01
2022-10-18T22:20:04.308Z,59.94
2022-10-18T22:22:36.440Z,60.00
2022-10-18T22:25:10.367Z,59.99
2022-10-18T22:27:43.044Z,59.84
2022-10-18T22:30:17.749Z,59.62
2022-10-18T22:32:49.514Z,59.42
2022-10-18T22:35:25.172Z,59.14
2022-10-18T22:37:58.464Z,58.91
2022-10-18T22:40:33.204Z,58.95
2022-10-18T22:43:06.511Z,58.96
2022-10-18T22:45:40.715Z,58.98
2022-10-18T22:48:13.665Z,58.87
2022-10-18T22:50:51.291Z,58.86
2022-10-18T22:53:24.750Z,59.02
2022-10-18T22:56:00.495Z,59.56
2022-10-18T22:58:33.741Z,59.03
2022-10-18T23:01:08.610Z,58.77
2022-10-18T23:03:40.985Z,58.74
2022-10-18T23:06:23.202Z,58.71
2022-10-18T23:08:56.576Z,58.83
2022-10-18T23:11:30.007Z,59.35
2022-10-18T23:14:03.343Z,58.98
2022-10-18T23:16:37.242Z,58.80
2022-10-18T23:19:10.645Z,58.67
2022-10-18T23:21:43.918Z,58.60
2022-10-18T23:24:17.398Z,58.62
2022-10-18T23:26:49.990Z,58.56
2022-10-18T23:29:24.674Z,58.61
2022-10-18T23:31:57.902Z,58.73
2022-10-18T23:34:30.276Z,58.68
2022-10-18T23:37:02.196Z,58.57
2022-10-18T23:39:35.430Z,58.60
2022-10-18T23:42:08.795Z,58.67
2022-10-18T23:44:42.145Z,58.47
2022-10-18T23:47:15.952Z,58.45
2022-10-18T23:49:48.622Z,58.38
2022-10-18T23:52:21.458Z,58.29
2022-10-18T23:54:53.572Z,58.30
2022-10-18T23:57:31.689Z,58.51
